Time;durP1;ratioP1;P1;durP2;ratioP2;P2;SDS_P1;SDS_P2;PMS_P1;PMS_P2;Temp;Humidity;BMP_temperature;BMP_pressure;BME280_temperature;BME280_humidity;BME280_pressure;Samples;Min_cycle;Max_cycle;Signal;HPM_P1;HPM_P2
2022/03/19 00:01:21;;;;;;;42.00;16.77;;;;;;;6.88;89.50;98280.25;5036901;28;20216;-71
2022/03/19 00:03:48;;;;;;;47.07;17.93;;;;;;;6.91;89.21;98274.81;5034021;28;20223;-72
2022/03/19 00:06:14;;;;;;;52.47;16.30;;;;;;;6.78;89.53;98287.09;5036392;28;20364;-72
2022/03/19 00:08:41;;;;;;;47.47;16.97;;;;;;;6.77;89.97;98288.03;5036611;28;20216;-71
2022/03/19 00:11:09;;;;;;;43.23;17.47;;;;;;;6.64;91.04;98291.56;5036606;28;20204;-74
2022/03/19 00:13:35;;;;;;;41.73;16.40;;;;;;;6.61;90.64;98290.97;5035602;28;20220;-73
2022/03/19 00:16:02;;;;;;;54.50;17.43;;;;;;;6.42;91.25;98295.75;5036300;28;20205;-72
2022/03/19 00:18:28;;;;;;;51.67;15.60;;;;;;;6.34;91.67;98287.53;5037037;28;20197;-71
2022/03/19 00:20:55;;;;;;;41.53;13.80;;;;;;;6.24;92.71;98286.50;5035577;28;20204;-72
2022/03/19 00:23:21;;;;;;;26.23;10.33;;;;;;;6.46;91.35;98279.72;5034698;28;20225;-73
2022/03/19 00:25:48;;;;;;;38.53;16.70;;;;;;;6.53;91.31;98282.75;5037175;28;21418;-73
2022/03/19 00:28:18;;;;;;;44.00;14.23;;;;;;;6.56;91.21;98279.94;5036997;28;20212;-72
2022/03/19 00:30:45;;;;;;;34.30;14.73;;;;;;;6.43;91.01;98277.31;5036369;28;20201;-73
2022/03/19 00:33:12;;;;;;;36.00;14.63;;;;;;;6.39;90.89;98277.59;5035095;28;20670;-72
2022/03/19 00:35:39;;;;;;;35.10;15.10;;;;;;;6.61;90.29;98260.34;5036323;28;20267;-73
2022/03/19 00:38:05;;;;;;;30.10;12.07;;;;;;;6.57;89.84;98268.50;5036071;28;20216;-73
2022/03/19 00:40:33;;;;;;;41.50;14.83;;;;;;;6.60;89.82;98266.53;5036396;28;20205;-72
2022/03/19 00:43:00;;;;;;;44.73;17.33;;;;;;;6.50;89.41;98268.09;5036075;28;20201;-72
2022/03/19 00:45:28;;;;;;;35.77;13.50;;;;;;;6.53;90.04;98256.56;5040307;28;20201;-73
2022/03/19 00:47:55;;;;;;;37.90;15.33;;;;;;;6.39;90.18;98262.75;5040023;28;20227;-72
2022/03/19 00:50:21;;;;;;;39.40;15.30;;;;;;;6.38;89.65;98262.84;5040633;28;20212;-72
2022/03/19 00:52:48;;;;;;;36.97;12.30;;;;;;;6.39;89.56;98261.88;5039088;28;20216;-74
2022/03/19 00:55:14;;;;;;;34.47;12.63;;;;;;;6.42;88.65;98265.16;5040337;28;20232;-72
2022/03/19 00:57:43;;;;;;;31.03;12.73;;;;;;;6.47;88.57;98257.00;5040665;28;20208;-71
2022/03/19 01:00:11;;;;;;;44.13;15.00;;;;;;;6.39;88.63;98265.38;5040227;28;21080;-71
2022/03/19 01:02:40;;;;;;;28.30;12.33;;;;;;;6.42;88.24;98259.91;5038897;28;20284;-74
2022/03/19 01:05:07;;;;;;;34.37;15.27;;;;;;;6.29;88.24;98264.28;5038323;28;20221;-72
2022/03/19 01:07:40;;;;;;;41.40;15.40;;;;;;;6.07;89.25;98269.28;5040108;28;20232;-73
2022/03/19 01:10:07;;;;;;;42.03;15.03;;;;;;;6.12;88.36;98259.34;5039938;28;20579;-72
2022/03/19 01:12:33;;;;;;;36.53;10.97;;;;;;;6.11;88.93;98262.91;5039110;28;20592;-73
2022/03/19 01:15:00;;;;;;;45.77;14.50;;;;;;;6.16;87.69;98260.81;5039997;28;20701;-74
2022/03/19 01:17:27;;;;;;;36.30;13.97;;;;;;;6.04;88.22;98259.00;5039774;28;20197;-73
2022/03/19 01:19:54;;;;;;;34.67;14.37;;;;;;;6.11;88.55;98257.66;5039533;28;20584;-70
2022/03/19 01:22:22;;;;;;;30.17;12.40;;;;;;;6.03;88.43;98266.13;5039236;28;20288;-73
2022/03/19 01:24:49;;;;;;;29.03;10.30;;;;;;;5.96;88.41;98256.97;5039546;28;20221;-71
2022/03/19 01:27:15;;;;;;;29.80;10.90;;;;;;;5.96;88.23;98254.34;5039311;28;20244;-71
2022/03/19 01:29:42;;;;;;;31.90;14.40;;;;;;;5.86;88.25;98251.50;5040066;28;20201;-70
2022/03/19 01:32:09;;;;;;;34.90;12.27;;;;;;;6.16;87.50;98245.13;5039328;28;20216;-71
2022/03/19 01:34:36;;;;;;;25.03;9.93;;;;;;;6.06;87.29;98246.66;5038908;28;20227;-70
2022/03/19 01:37:05;;;;;;;23.33;11.53;;;;;;;6.13;87.58;98245.28;5039746;28;20362;-70
2022/03/19 01:39:32;;;;;;;26.63;10.63;;;;;;;5.71;88.36;98246.41;5039697;28;21140;-73
2022/03/19 01:41:58;;;;;;;29.17;11.17;;;;;;;5.84;87.69;98242.09;5038709;28;20197;-72
2022/03/19 01:44:25;;;;;;;35.90;11.00;;;;;;;5.84;87.49;98234.25;5037721;28;20225;-72
2022/03/19 01:46:56;;;;;;;26.37;13.33;;;;;;;6.22;86.84;98242.09;5039419;28;21082;-71
2022/03/19 01:49:23;;;;;;;26.70;9.47;;;;;;;5.81;87.49;98237.06;5038835;28;20948;-71
2022/03/19 01:51:49;;;;;;;34.77;12.33;;;;;;;5.96;86.37;98236.03;5038996;28;20201;-71
2022/03/19 01:54:17;;;;;;;39.83;13.90;;;;;;;5.89;87.22;98238.22;5038168;28;20251;-70
2022/03/19 01:56:45;;;;;;;27.63;12.70;;;;;;;5.71;88.30;98238.56;5038988;28;20201;-71
2022/03/19 01:59:13;;;;;;;24.03;9.53;;;;;;;5.36;89.00;98229.53;5038817;28;21102;-70
2022/03/19 02:01:41;;;;;;;33.07;11.10;;;;;;;5.62;88.31;98224.28;5039351;28;20205;-71
2022/03/19 02:04:09;;;;;;;22.30;9.40;;;;;;;5.66;87.76;98223.16;5035352;28;20232;-71
2022/03/19 02:06:36;;;;;;;27.00;10.50;;;;;;;5.86;86.41;98216.69;5038749;28;20767;-70
2022/03/19 02:09:03;;;;;;;17.47;10.43;;;;;;;5.66;86.71;98217.09;5039110;28;20216;-71
2022/03/19 02:11:31;;;;;;;26.70;9.93;;;;;;;5.89;86.67;98217.28;5038978;28;20201;-71
2022/03/19 02:13:57;;;;;;;23.93;10.43;;;;;;;5.77;85.85;98212.88;5037701;28;20229;-72
2022/03/19 02:16:24;;;;;;;34.23;10.50;;;;;;;5.69;85.84;98215.13;5038730;28;20944;-71
2022/03/19 02:18:50;;;;;;;28.80;11.63;;;;;;;5.69;86.18;98209.03;5039117;28;20400;-72
2022/03/19 02:21:17;;;;;;;31.80;12.17;;;;;;;5.67;86.11;98209.16;5038639;28;20670;-71
2022/03/19 02:26:42;;;;;;;22.03;10.10;;;;;;;5.84;85.65;98205.47;5038667;28;20251;-72
2022/03/19 02:29:09;;;;;;;25.87;10.80;;;;;;;5.70;85.10;98206.34;5038774;28;20201;-71
2022/03/19 02:31:38;;;;;;;27.33;11.97;;;;;;;5.71;85.68;98209.78;5037069;28;20205;-70
2022/03/19 02:34:08;;;;;;;23.67;9.43;;;;;;;5.45;86.05;98216.69;5037356;28;20236;-71
2022/03/19 02:36:35;;;;;;;27.80;11.37;;;;;;;5.43;86.62;98215.13;5037793;28;20212;-70
2022/03/19 02:39:09;;;;;;;26.57;10.57;;;;;;;5.69;86.60;98225.59;5038394;28;20298;-70
2022/03/19 02:41:36;;;;;;;41.53;15.17;;;;;;;5.10;87.97;98222.47;5038616;28;20215;-70
2022/03/19 02:44:02;;;;;;;30.70;8.53;;;;;;;5.29;86.80;98220.38;5036815;28;20240;-71
2022/03/19 02:46:38;;;;;;;21.43;10.27;;;;;;;5.61;86.17;98208.69;5038251;28;20205;-71
2022/03/19 02:49:04;;;;;;;19.77;8.97;;;;;;;5.36;86.91;98202.53;5038521;28;20662;-73
2022/03/19 02:51:34;;;;;;;29.50;10.47;;;;;;;5.62;86.64;98197.31;5037887;28;20208;-72
2022/03/19 02:54:00;;;;;;;18.00;9.70;;;;;;;5.41;86.38;98201.31;5036826;28;20232;-72
2022/03/19 02:56:28;;;;;;;23.67;10.13;;;;;;;5.56;86.44;98202.94;5038468;28;20197;-71
2022/03/19 02:58:54;;;;;;;11.70;6.93;;;;;;;5.24;86.59;98206.75;5038051;28;20212;-70
2022/03/19 03:01:21;;;;;;;23.47;10.27;;;;;;;5.29;86.51;98203.88;5037909;28;20459;-71
2022/03/19 03:03:48;;;;;;;21.80;10.13;;;;;;;5.19;87.14;98198.38;5033993;28;20614;-71
2022/03/19 03:06:15;;;;;;;23.83;10.43;;;;;;;5.21;86.38;98204.34;5037527;28;20205;-70
2022/03/19 03:08:41;;;;;;;29.77;11.10;;;;;;;5.07;87.35;98207.00;5037310;28;20877;-71
2022/03/19 03:11:08;;;;;;;22.83;10.07;;;;;;;5.10;87.24;98206.78;5034192;28;20658;-72
2022/03/19 03:13:35;;;;;;;17.53;6.63;;;;;;;5.35;86.79;98193.88;5037025;28;20232;-70
2022/03/19 03:16:02;;;;;;;18.80;9.03;;;;;;;5.18;86.29;98194.09;5037677;28;20205;-72
2022/03/19 03:18:29;;;;;;;33.27;11.80;;;;;;;5.31;85.90;98194.13;5037926;28;20189;-72
2022/03/19 03:20:55;;;;;;;19.10;9.83;;;;;;;5.25;86.01;98197.16;5037769;28;20208;-70
2022/03/19 03:23:22;;;;;;;19.70;9.10;;;;;;;5.20;85.87;98194.00;5036518;28;20225;-72
2022/03/19 03:25:48;;;;;;;16.83;9.27;;;;;;;5.16;85.79;98193.34;5037365;28;20200;-71
2022/03/19 03:28:14;;;;;;;21.23;9.97;;;;;;;5.03;85.90;98192.44;5037496;28;20247;-71
2022/03/19 03:30:42;;;;;;;24.33;11.07;;;;;;;5.29;85.73;98183.78;5037783;28;20201;-72
2022/03/19 03:33:09;;;;;;;18.77;8.50;;;;;;;4.93;86.01;98186.13;5036570;28;20201;-70
2022/03/19 03:35:35;;;;;;;20.03;8.97;;;;;;;4.91;85.70;98182.78;5037361;28;20255;-70
2022/03/19 03:38:02;;;;;;;15.67;8.17;;;;;;;4.89;85.94;98178.59;5037243;28;20201;-71
2022/03/19 03:40:28;;;;;;;20.07;9.00;;;;;;;5.04;85.46;98175.84;5036983;28;20201;-70
2022/03/19 03:42:56;;;;;;;14.27;7.17;;;;;;;5.06;85.30;98184.41;5036256;28;20197;-72
2022/03/19 03:45:22;;;;;;;14.27;7.40;;;;;;;4.93;85.56;98183.50;5037591;28;20221;-70
2022/03/19 03:47:50;;;;;;;23.67;9.10;;;;;;;5.16;85.06;98182.91;5036524;28;20217;-71
2022/03/19 03:50:17;;;;;;;13.50;7.30;;;;;;;4.60;86.94;98191.75;5037149;28;20198;-71
2022/03/19 03:52:43;;;;;;;19.77;9.00;;;;;;;4.82;85.74;98193.81;5036838;28;20204;-72
2022/03/19 03:55:09;;;;;;;22.60;9.97;;;;;;;4.72;86.30;98191.81;5036612;28;20240;-70
2022/03/19 03:57:36;;;;;;;20.33;9.23;;;;;;;4.89;85.51;98181.19;5036831;28;20201;-71
2022/03/19 04:00:04;;;;;;;17.73;8.17;;;;;;;4.94;85.43;98182.56;5038008;28;21039;-72
2022/03/19 04:02:31;;;;;;;29.67;9.73;;;;;;;4.85;85.42;98188.38;5036348;28;20876;-71
2022/03/19 04:04:59;;;;;;;16.27;8.40;;;;;;;4.94;85.85;98187.81;5033885;28;20225;-71
2022/03/19 04:07:27;;;;;;;27.33;10.83;;;;;;;4.65;85.68;98189.72;5036999;28;20240;-72
2022/03/19 04:09:53;;;;;;;22.47;8.83;;;;;;;4.70;85.58;98180.66;5036722;28;21030;-71
2022/03/19 04:12:22;;;;;;;24.37;8.57;;;;;;;4.71;85.83;98182.34;5036154;28;20204;-70
2022/03/19 04:14:48;;;;;;;24.03;9.03;;;;;;;4.68;86.20;98179.06;5036716;28;20286;-71
2022/03/19 04:17:15;;;;;;;13.80;7.40;;;;;;;4.70;85.58;98171.97;5036340;28;20430;-71
2022/03/19 04:19:41;;;;;;;16.70;7.97;;;;;;;4.80;85.25;98173.06;5036361;28;20279;-71
2022/03/19 04:22:09;;;;;;;35.27;10.60;;;;;;;4.96;85.28;98175.50;5036395;28;20207;-70
2022/03/19 04:24:35;;;;;;;17.93;7.47;;;;;;;4.65;85.70;98168.81;5036035;28;20229;-72
2022/03/19 04:27:02;;;;;;;14.17;7.77;;;;;;;4.56;84.90;98177.22;5036480;28;20201;-71
2022/03/19 04:29:28;;;;;;;23.53;11.27;;;;;;;4.72;84.94;98164.88;5036970;28;20589;-70
2022/03/19 04:31:55;;;;;;;25.13;8.77;;;;;;;4.62;85.15;98158.53;5036355;28;20689;-70
2022/03/19 04:34:22;;;;;;;32.10;9.53;;;;;;;4.73;84.70;98163.97;5035385;28;20220;-70
2022/03/19 04:36:48;;;;;;;19.13;9.63;;;;;;;4.77;84.97;98162.81;5036389;28;20225;-71
2022/03/19 04:39:16;;;;;;;17.60;7.53;;;;;;;4.73;84.76;98161.34;5037009;28;20212;-72
2022/03/19 04:41:43;;;;;;;24.17;11.40;;;;;;;4.56;84.29;98159.78;5036521;28;20201;-70
2022/03/19 04:44:10;;;;;;;17.43;9.63;;;;;;;4.64;84.39;98154.91;5035504;28;20578;-70
2022/03/19 04:46:37;;;;;;;21.67;9.43;;;;;;;4.73;84.09;98158.72;5036832;28;20740;-71
2022/03/19 04:49:04;;;;;;;21.43;8.20;;;;;;;4.64;83.97;98156.69;5036093;28;20987;-70
2022/03/19 04:51:32;;;;;;;24.77;9.23;;;;;;;4.75;84.10;98143.78;5036138;28;20201;-72
2022/03/19 04:54:00;;;;;;;15.87;9.00;;;;;;;4.64;83.92;98156.69;5035731;28;20225;-72
2022/03/19 04:56:29;;;;;;;23.97;10.47;;;;;;;4.86;83.73;98150.88;5036588;28;20205;-71
2022/03/19 04:58:58;;;;;;;24.17;9.67;;;;;;;4.74;83.75;98147.34;5036576;28;20637;-71
2022/03/19 05:01:26;;;;;;;20.03;9.67;;;;;;;4.79;83.48;98156.56;5036987;28;20224;-71
2022/03/19 05:03:53;;;;;;;18.63;7.93;;;;;;;4.63;83.10;98152.41;5031776;28;20291;-71
2022/03/19 05:06:19;;;;;;;18.63;8.43;;;;;;;4.49;83.70;98148.03;5035578;28;20291;-71
2022/03/19 05:08:46;;;;;;;20.53;9.03;;;;;;;4.74;82.15;98155.19;5036598;28;20338;-72
2022/03/19 05:11:16;;;;;;;16.20;8.37;;;;;;;4.67;82.40;98149.50;5036415;28;20202;-71
2022/03/19 05:13:45;;;;;;;19.70;8.40;;;;;;;4.84;82.38;98147.50;5034892;28;20274;-70
2022/03/19 05:16:12;;;;;;;21.17;7.23;;;;;;;4.76;82.05;98141.09;5036008;28;20224;-70
2022/03/19 05:18:39;;;;;;;24.33;11.10;;;;;;;4.63;82.26;98145.38;5036295;28;20205;-73
2022/03/19 05:21:06;;;;;;;17.10;7.37;;;;;;;4.50;82.61;98141.84;5036133;28;20201;-71
2022/03/19 05:23:34;;;;;;;19.70;9.30;;;;;;;4.42;82.71;98146.72;5035293;28;20232;-71
2022/03/19 05:26:00;;;;;;;22.63;9.03;;;;;;;4.49;81.99;98148.03;5036079;28;20209;-71
2022/03/19 05:28:27;;;;;;;18.70;9.53;;;;;;;4.56;81.65;98153.72;5036217;28;20229;-72
2022/03/19 05:30:57;;;;;;;9.77;6.73;;;;;;;4.62;82.22;98148.97;5039402;28;20197;-70
2022/03/19 05:34:29;;;;;;;17.07;8.23;;;;;;;4.73;81.36;98150.91;5039296;28;20225;-70
2022/03/19 05:36:11;;;;;;;24.33;9.07;;;;;;;4.60;80.98;98150.81;5038809;28;20287;-72
2022/03/19 05:38:38;;;;;;;20.50;9.47;;;;;;;4.50;81.24;98151.47;5038959;28;20201;-71
2022/03/19 05:41:04;;;;;;;14.20;7.40;;;;;;;4.67;80.27;98153.88;5039828;28;20209;-71
2022/03/19 05:43:31;;;;;;;18.00;8.77;;;;;;;4.84;79.25;98157.97;5038196;28;20225;-71
2022/03/19 05:45:58;;;;;;;16.20;8.17;;;;;;;5.04;79.18;98148.84;5039114;28;21281;-73
2022/03/19 05:48:25;;;;;;;14.33;6.87;;;;;;;4.92;78.95;98150.47;5039063;28;20221;-72
2022/03/19 05:50:53;;;;;;;18.93;7.50;;;;;;;4.93;78.95;98149.53;5039404;28;20205;-71
2022/03/19 05:53:19;;;;;;;22.17;9.10;;;;;;;4.88;78.64;98145.56;5038597;28;20216;-73
2022/03/19 05:55:45;;;;;;;15.63;7.67;;;;;;;5.02;78.59;98155.97;5039113;28;20677;-73
2022/03/19 05:58:12;;;;;;;18.93;8.57;;;;;;;5.07;77.65;98146.91;5039107;28;20198;-70
2022/03/19 06:00:38;;;;;;;19.70;7.63;;;;;;;5.11;77.27;98152.78;5039225;28;20197;-71
2022/03/19 06:03:06;;;;;;;16.10;6.80;;;;;;;5.10;78.09;98156.31;5034994;28;20209;-72
2022/03/19 06:05:33;;;;;;;19.20;7.43;;;;;;;5.21;77.57;98152.09;5038878;28;20213;-70
2022/03/19 06:07:59;;;;;;;19.47;7.60;;;;;;;5.28;77.38;98148.13;5038752;28;20340;-72
2022/03/19 06:10:26;;;;;;;22.27;7.83;;;;;;;5.14;77.18;98148.19;5039156;28;20758;-70
2022/03/19 06:12:52;;;;;;;26.77;8.73;;;;;;;5.24;77.32;98145.81;5038105;28;20208;-71
2022/03/19 06:15:19;;;;;;;23.87;8.87;;;;;;;4.95;78.41;98149.44;5038488;28;20248;-72
2022/03/19 06:17:45;;;;;;;27.23;9.13;;;;;;;5.11;78.16;98142.31;5038172;28;20209;-70
2022/03/19 06:20:14;;;;;;;22.43;7.97;;;;;;;4.93;79.13;98141.72;5039285;28;20212;-70
2022/03/19 06:22:41;;;;;;;22.30;8.73;;;;;;;5.04;78.69;98141.88;5038131;28;21022;-72
2022/03/19 06:25:08;;;;;;;28.87;8.40;;;;;;;5.28;77.69;98137.66;5038351;28;20322;-71
2022/03/19 06:27:34;;;;;;;41.87;8.87;;;;;;;5.27;78.07;98133.41;5038693;28;20205;-71
2022/03/19 06:30:01;;;;;;;18.53;9.20;;;;;;;5.22;78.30;98130.25;5038937;28;20232;-70
2022/03/19 06:32:27;;;;;;;14.27;6.57;;;;;;;5.44;77.28;98135.75;5037826;28;20201;-71
2022/03/19 06:34:54;;;;;;;22.13;9.80;;;;;;;5.55;76.96;98130.66;5038203;28;20874;-72
2022/03/19 06:37:21;;;;;;;20.40;9.93;;;;;;;5.72;76.81;98136.44;5038438;28;20213;-72
2022/03/19 06:39:49;;;;;;;23.17;9.13;;;;;;;5.48;77.22;98126.75;5038628;28;20810;-70
2022/03/19 06:42:16;;;;;;;17.50;7.77;;;;;;;5.41;77.56;98135.97;5037000;28;20201;-71
2022/03/19 06:44:42;;;;;;;25.37;9.70;;;;;;;5.55;76.91;98131.50;5037719;28;20235;-73
2022/03/19 06:47:08;;;;;;;25.70;9.13;;;;;;;5.49;76.28;98124.03;5039167;28;20205;-71
2022/03/19 06:49:35;;;;;;;19.47;8.17;;;;;;;5.75;76.31;98130.19;5037691;28;20410;-71
2022/03/19 06:52:01;;;;;;;18.60;7.60;;;;;;;5.43;78.13;98134.06;5037815;28;21412;-73
2022/03/19 06:54:29;;;;;;;15.47;8.73;;;;;;;5.75;76.73;98131.03;5037721;28;20233;-71
2022/03/19 06:56:56;;;;;;;22.27;7.47;;;;;;;5.75;76.49;98124.94;5037497;28;20197;-70
2022/03/19 06:59:22;;;;;;;15.97;6.90;;;;;;;5.65;77.25;98131.72;5038259;28;20208;-71
2022/03/19 07:01:49;;;;;;;20.27;8.00;;;;;;;5.68;76.68;98118.47;5037972;28;20208;-70
2022/03/19 07:04:15;;;;;;;16.80;7.80;;;;;;;5.71;76.20;98120.84;5034174;28;20225;-72
2022/03/19 07:06:42;;;;;;;15.63;6.67;;;;;;;5.71;76.06;98131.31;5038147;28;20201;-71
2022/03/19 07:09:08;;;;;;;18.43;7.50;;;;;;;5.76;76.48;98117.03;5037901;28;20228;-71
2022/03/19 07:11:36;;;;;;;14.73;7.13;;;;;;;6.04;75.49;98123.88;5037746;28;20212;-70
2022/03/19 07:14:04;;;;;;;17.33;7.03;;;;;;;5.91;75.94;98115.19;5037366;28;20252;-73
2022/03/19 07:16:31;;;;;;;13.37;7.00;;;;;;;5.98;75.06;98119.88;5037915;28;20204;-71
2022/03/19 07:18:59;;;;;;;14.47;6.43;;;;;;;5.89;75.24;98117.88;5037298;28;20201;-71
2022/03/19 07:21:25;;;;;;;11.17;5.30;;;;;;;6.01;75.88;98108.34;5037506;28;20287;-71
2022/03/19 07:23:51;;;;;;;14.33;6.93;;;;;;;6.30;73.96;98110.66;5037208;28;20971;-71
2022/03/19 07:26:18;;;;;;;20.23;9.33;;;;;;;6.21;75.31;98116.53;5037225;28;20212;-72
2022/03/19 07:28:46;;;;;;;19.63;7.07;;;;;;;6.32;73.67;98104.38;5037308;28;20229;-70
2022/03/19 07:31:12;;;;;;;16.17;6.70;;;;;;;6.25;73.84;98103.13;5037247;28;20204;-72
2022/03/19 07:33:39;;;;;;;18.37;6.87;;;;;;;6.27;73.93;98106.47;5037215;28;20234;-71
2022/03/19 07:36:05;;;;;;;21.10;7.63;;;;;;;6.41;73.86;98103.72;5037236;28;20209;-72
2022/03/19 07:38:32;;;;;;;24.23;7.53;;;;;;;6.37;71.83;98093.59;5037401;28;20678;-71
2022/03/19 07:43:43;;;;;;;19.00;8.07;;;;;;;6.65;73.15;98110.72;5036212;28;20366;-71
2022/03/19 07:46:11;;;;;;;15.43;6.90;;;;;;;6.73;70.76;98094.44;5036819;28;20305;-72
2022/03/19 07:48:38;;;;;;;16.47;8.53;;;;;;;6.75;71.56;98100.44;5037265;28;20225;-71
2022/03/19 07:51:05;;;;;;;14.73;8.40;;;;;;;6.72;71.57;98090.16;5037444;28;20216;-71
2022/03/19 07:53:31;;;;;;;13.67;7.23;;;;;;;6.98;70.73;98089.16;5036001;28;20217;-70
2022/03/19 07:55:58;;;;;;;23.60;8.53;;;;;;;6.75;69.65;98096.03;5036882;28;20579;-71
2022/03/19 07:58:24;;;;;;;23.93;8.97;;;;;;;6.89;69.79;98098.50;5037129;28;20197;-70
2022/03/19 08:00:51;;;;;;;16.23;8.50;;;;;;;6.74;69.05;98096.13;5036368;28;20674;-71
2022/03/19 08:03:19;;;;;;;13.30;6.33;;;;;;;7.21;69.88;98093.56;5031991;28;20376;-71
2022/03/19 08:05:46;;;;;;;11.93;6.10;;;;;;;7.05;68.32;98093.84;5036982;28;20263;-72
2022/03/19 08:08:14;;;;;;;27.80;9.10;;;;;;;7.03;68.07;98085.25;5036209;28;20220;-71
2022/03/19 08:10:40;;;;;;;16.60;6.93;;;;;;;7.24;66.59;98077.59;5036792;28;20196;-71
2022/03/19 08:13:08;;;;;;;13.37;7.07;;;;;;;7.39;66.91;98080.75;5035972;28;20295;-70
2022/03/19 08:15:37;;;;;;;18.77;8.53;;;;;;;7.53;65.81;98079.75;5035517;28;20227;-71
2022/03/19 08:18:04;;;;;;;16.07;7.27;;;;;;;7.61;67.00;98077.38;5035496;28;20783;-72
2022/03/19 08:20:32;;;;;;;11.03;5.13;;;;;;;7.64;64.37;98071.91;5037470;28;20205;-70
2022/03/19 08:22:59;;;;;;;24.60;8.30;;;;;;;7.48;66.17;98076.63;5035356;28;20205;-71
2022/03/19 08:25:25;;;;;;;14.93;7.60;;;;;;;7.57;62.77;98068.88;5036841;28;20697;-72
2022/03/19 08:27:53;;;;;;;21.97;7.43;;;;;;;7.79;64.70;98066.34;5036971;28;20205;-71
2022/03/19 08:30:20;;;;;;;14.63;7.70;;;;;;;7.96;61.84;98061.47;5036576;28;20593;-71
2022/03/19 08:32:47;;;;;;;19.97;6.83;;;;;;;8.17;60.87;98064.28;5035838;28;20201;-71
2022/03/19 08:35:14;;;;;;;15.87;6.97;;;;;;;8.24;61.65;98052.38;5037081;28;20221;-71
2022/03/19 08:37:41;;;;;;;14.13;6.87;;;;;;;8.20;58.98;98050.94;5036277;28;20197;-71
2022/03/19 08:40:17;;;;;;;13.23;5.00;;;;;;;8.22;60.03;98059.50;5035872;28;20865;-71
2022/03/19 08:42:45;;;;;;;17.53;7.77;;;;;;;8.39;58.51;98052.00;5035640;28;21034;-72
2022/03/19 08:45:11;;;;;;;16.30;8.20;;;;;;;8.57;58.98;98048.75;5036600;28;20306;-70
2022/03/19 08:47:38;;;;;;;11.10;5.60;;;;;;;8.50;57.57;98050.19;5036181;28;20214;-71
2022/03/19 08:50:06;;;;;;;10.53;6.33;;;;;;;8.53;58.17;98044.69;5036373;28;20257;-71
2022/03/19 08:52:33;;;;;;;13.40;5.37;;;;;;;8.55;58.19;98037.53;5035690;28;21052;-71
2022/03/19 08:55:01;;;;;;;13.53;5.87;;;;;;;8.83;56.16;98034.34;5035918;28;20324;-71
2022/03/19 08:57:28;;;;;;;14.23;5.77;;;;;;;8.48;55.17;98039.91;5036069;28;20896;-71
2022/03/19 08:59:54;;;;;;;7.57;4.97;;;;;;;8.50;55.63;98029.19;5036574;28;20197;-70
2022/03/19 09:02:22;;;;;;;18.33;6.60;;;;;;;8.60;56.03;98035.41;5035792;28;20201;-71
2022/03/19 09:04:48;;;;;;;7.77;4.50;;;;;;;8.57;56.36;98030.34;5035269;28;20224;-70
2022/03/19 09:07:15;;;;;;;17.57;6.37;;;;;;;9.05;56.51;98022.97;5040198;28;20201;-71
2022/03/19 09:09:42;;;;;;;15.67;6.90;;;;;;;9.03;56.37;98028.34;5039356;28;20221;-71
2022/03/19 09:12:10;;;;;;;16.70;7.23;;;;;;;9.38;54.65;98019.25;5039718;28;20197;-72
2022/03/19 09:14:37;;;;;;;18.03;6.93;;;;;;;9.39;55.24;98015.63;5040132;28;20282;-71
2022/03/19 09:17:04;;;;;;;27.67;6.10;;;;;;;9.44;56.02;98012.63;5040165;28;20201;-71
2022/03/19 09:19:31;;;;;;;18.57;6.90;;;;;;;9.57;52.15;98018.53;5039656;28;20197;-72
2022/03/19 09:21:57;;;;;;;10.27;5.13;;;;;;;9.66;52.60;98008.09;5039780;28;20244;-70
2022/03/19 09:24:24;;;;;;;13.43;5.37;;;;;;;9.73;54.69;98001.34;5039260;28;20667;-70
2022/03/19 09:26:51;;;;;;;33.40;6.10;;;;;;;9.77;53.48;97995.66;5039126;28;20204;-72
2022/03/19 09:29:18;;;;;;;17.70;5.67;;;;;;;9.81;51.94;97988.34;5040026;28;20312;-72
2022/03/19 09:31:45;;;;;;;13.10;5.87;;;;;;;9.77;53.87;97985.13;5040878;28;20201;-71
2022/03/19 09:34:11;;;;;;;18.20;7.17;;;;;;;9.92;54.11;97983.84;5038656;28;20600;-70
2022/03/19 09:36:40;;;;;;;18.47;6.43;;;;;;;10.05;52.37;97973.97;5039898;28;20201;-71
2022/03/19 09:39:07;;;;;;;12.43;4.97;;;;;;;10.09;51.54;97971.91;5040386;28;20318;-72
2022/03/19 09:41:34;;;;;;;15.67;6.27;;;;;;;10.46;53.85;97963.28;5040164;28;20197;-71
2022/03/19 09:44:01;;;;;;;12.87;6.67;;;;;;;10.47;50.94;97959.69;5038186;28;20255;-70
2022/03/19 09:46:28;;;;;;;17.80;7.87;;;;;;;10.51;53.53;97966.34;5039847;28;20208;-71
2022/03/19 09:48:55;;;;;;;18.87;7.07;;;;;;;10.36;49.13;97946.59;5039351;28;20224;-71
2022/03/19 09:51:22;;;;;;;15.13;6.70;;;;;;;10.25;50.29;97948.56;5038988;28;20472;-70
2022/03/19 09:53:49;;;;;;;20.47;6.23;;;;;;;10.16;51.52;97959.88;5038420;28;20217;-69
2022/03/19 09:56:16;;;;;;;17.80;6.80;;;;;;;10.09;53.84;97950.81;5039205;28;20233;-69
2022/03/19 09:58:43;;;;;;;18.90;6.87;;;;;;;10.26;49.15;97948.41;5039020;28;20201;-71
2022/03/19 10:01:09;;;;;;;14.17;6.67;;;;;;;10.44;51.06;97947.63;5039039;28;20201;-70
2022/03/19 10:03:41;;;;;;;20.07;7.33;;;;;;;10.60;47.56;97953.22;5035424;28;20221;-70
2022/03/19 10:08:59;;;;;;;11.60;4.77;;;;;;;10.54;49.10;97940.56;5037866;28;20250;-71
2022/03/19 10:11:30;;;;;;;20.33;8.73;;;;;;;10.88;50.21;97939.22;5038413;28;20224;-71
2022/03/19 10:13:57;;;;;;;14.93;7.00;;;;;;;10.85;48.74;97931.59;5037229;28;20238;-71
2022/03/19 10:16:26;;;;;;;14.17;6.20;;;;;;;11.07;47.61;97932.16;5037990;28;20201;-70
2022/03/19 10:18:58;;;;;;;18.93;7.67;;;;;;;11.30;47.02;97922.13;5038201;28;20201;-71
2022/03/19 10:21:26;;;;;;;16.33;7.03;;;;;;;11.03;46.83;97930.75;5037736;28;20208;-71
2022/03/19 10:23:52;;;;;;;15.40;6.43;;;;;;;11.04;46.33;97927.16;5037202;28;20225;-70
2022/03/19 10:26:30;;;;;;;18.33;7.67;;;;;;;11.18;45.52;97916.16;5038349;28;20205;-71
2022/03/19 10:28:58;;;;;;;15.30;6.57;;;;;;;10.78;45.80;97921.72;5037767;28;20200;-70
2022/03/19 10:31:33;;;;;;;16.60;6.93;;;;;;;11.24;46.49;97912.13;5037384;28;20286;-71
2022/03/19 10:34:01;;;;;;;17.70;7.57;;;;;;;11.08;47.81;97912.69;5036985;28;20720;-70
2022/03/19 10:36:32;;;;;;;16.60;5.10;;;;;;;11.11;46.86;97917.72;5038148;28;20209;-71
2022/03/19 10:38:59;;;;;;;15.03;6.60;;;;;;;11.20;46.07;97908.97;5036898;28;20209;-69
2022/03/19 10:41:27;;;;;;;21.67;7.53;;;;;;;10.87;46.97;97907.72;5038212;28;20193;-70
2022/03/19 10:43:53;;;;;;;20.03;7.63;;;;;;;11.52;45.82;97887.53;5036879;28;20228;-71
2022/03/19 10:46:20;;;;;;;21.57;7.37;;;;;;;11.54;47.03;97880.31;5036477;28;20201;-70
2022/03/19 10:48:52;;;;;;;21.27;6.57;;;;;;;11.82;47.17;97875.75;5036332;28;20749;-71
2022/03/19 10:51:21;;;;;;;21.83;8.70;;;;;;;11.48;44.40;97871.13;5036900;28;20225;-71
2022/03/19 10:53:49;;;;;;;16.33;7.37;;;;;;;11.57;45.08;97867.66;5036019;28;20249;-71
2022/03/19 10:56:16;;;;;;;18.90;7.50;;;;;;;11.46;46.31;97859.06;5037516;28;20201;-70
2022/03/19 10:58:42;;;;;;;17.50;7.53;;;;;;;11.36;44.01;97851.13;5037131;28;20586;-70
2022/03/19 11:01:12;;;;;;;17.87;8.23;;;;;;;11.46;43.09;97841.38;5037602;28;20201;-69
2022/03/19 11:03:42;;;;;;;20.80;7.27;;;;;;;12.04;44.24;97830.47;5035483;28;20351;-71
2022/03/19 11:06:10;;;;;;;21.10;6.77;;;;;;;12.34;45.89;97830.97;5037760;28;20201;-70
2022/03/19 11:08:39;;;;;;;21.47;8.57;;;;;;;12.00;41.93;97825.63;5037904;28;20201;-70
2022/03/19 11:11:10;;;;;;;19.30;7.20;;;;;;;12.07;41.94;97821.44;5037744;28;20610;-70
2022/03/19 11:13:43;;;;;;;15.77;6.80;;;;;;;12.19;43.48;97806.03;5036307;28;20217;-70
2022/03/19 11:16:11;;;;;;;17.60;6.47;;;;;;;12.27;43.79;97798.19;5037709;28;20665;-70
2022/03/19 11:18:38;;;;;;;24.43;7.50;;;;;;;12.15;42.91;97798.53;5038513;28;20341;-70
2022/03/19 11:21:05;;;;;;;15.83;6.90;;;;;;;11.86;42.58;97794.41;5037080;28;20204;-71
2022/03/19 11:23:44;;;;;;;19.13;8.67;;;;;;;12.44;41.46;97791.25;5037086;28;20259;-71
2022/03/19 11:26:14;;;;;;;23.70;7.40;;;;;;;12.52;40.30;97789.50;5038159;28;20201;-70
2022/03/19 11:28:41;;;;;;;13.50;5.80;;;;;;;12.26;40.48;97793.06;5037307;28;20202;-70
2022/03/19 11:31:08;;;;;;;9.57;4.67;;;;;;;11.99;38.86;97786.97;5037361;28;20602;-70
2022/03/19 11:33:36;;;;;;;14.23;6.10;;;;;;;12.23;41.77;97769.53;5036594;28;20224;-70
2022/03/19 11:36:09;;;;;;;18.90;6.60;;;;;;;12.40;38.38;97776.69;5037052;28;20690;-69
2022/03/19 11:38:42;;;;;;;12.67;6.37;;;;;;;12.36;38.62;97778.78;5037337;28;20228;-70